createdAt,value
2023-01-19T00:00:49.801Z,-3.10
2023-01-19T00:03:18.078Z,-3.20
2023-01-19T00:05:45.144Z,-3.20
2023-01-19T00:08:14.994Z,-3.00
2023-01-19T00:10:43.033Z,-2.60
2023-01-19T00:13:10.029Z,-2.70
2023-01-19T00:15:36.852Z,-2.60
2023-01-19T00:18:03.867Z,-2.90
2023-01-19T00:20:32.835Z,-2.90
2023-01-19T00:23:01.371Z,-3.10
2023-01-19T00:25:28.457Z,-2.90
2023-01-19T00:27:56.533Z,-2.80
2023-01-19T00:30:24.677Z,-2.90
2023-01-19T00:32:51.450Z,-3.00
2023-01-19T00:35:18.492Z,-2.90
2023-01-19T00:37:46.208Z,-3.20
2023-01-19T00:40:14.132Z,-3.30
2023-01-19T00:42:41.562Z,-3.20
2023-01-19T00:45:08.944Z,-3.20
2023-01-19T00:47:35.832Z,-3.00
2023-01-19T00:50:02.948Z,-3.00
2023-01-19T00:52:29.832Z,-2.80
2023-01-19T00:54:56.627Z,-2.80
2023-01-19T00:57:23.596Z,-2.80
2023-01-19T00:59:50.464Z,-2.90
2023-01-19T01:02:17.519Z,-2.70
2023-01-19T01:04:44.474Z,-2.50
2023-01-19T01:07:11.334Z,-2.50
2023-01-19T01:09:38.183Z,-2.40
2023-01-19T01:12:06.011Z,-2.30
2023-01-19T01:14:33.015Z,-2.00
2023-01-19T01:17:00.737Z,-1.80
2023-01-19T01:19:27.707Z,-1.70
2023-01-19T01:21:55.552Z,-1.60
2023-01-19T01:24:22.455Z,-1.70
2023-01-19T01:26:49.352Z,-1.90
2023-01-19T01:29:16.351Z,-1.80
2023-01-19T01:31:43.244Z,-1.90
2023-01-19T01:34:10.103Z,-1.80
2023-01-19T01:36:36.888Z,-1.80
2023-01-19T01:39:03.856Z,-1.70
2023-01-19T01:41:31.101Z,-1.60
2023-01-19T01:43:58.943Z,-1.80
2023-01-19T01:46:27.406Z,-1.80
2023-01-19T01:49:03.579Z,-1.90
2023-01-19T01:51:34.136Z,-1.90
2023-01-19T01:54:04.944Z,-2.00
2023-01-19T01:56:39.830Z,-1.90
2023-01-19T01:59:08.358Z,-2.00
2023-01-19T02:01:54.677Z,-2.10
2023-01-19T02:04:23.015Z,-2.00
2023-01-19T02:07:08.963Z,-2.00
2023-01-19T02:09:54.987Z,-2.10
2023-01-19T02:12:41.180Z,-1.80
2023-01-19T02:15:15.136Z,-1.80
2023-01-19T02:17:42.351Z,-1.80
2023-01-19T02:20:10.693Z,-2.00
2023-01-19T02:22:44.164Z,-1.90
2023-01-19T02:25:11.003Z,-2.00
2023-01-19T02:27:37.891Z,-2.10
2023-01-19T02:30:05.140Z,-2.10
2023-01-19T02:32:32.017Z,-2.10
2023-01-19T02:34:58.919Z,-2.00
2023-01-19T02:37:26.655Z,-2.20
2023-01-19T02:39:55.740Z,-2.10
2023-01-19T02:42:43.883Z,-2.10
2023-01-19T02:45:12.764Z,-2.20
2023-01-19T02:47:40.675Z,-2.30
2023-01-19T02:50:27.504Z,-2.30
2023-01-19T02:53:00.725Z,-2.30
2023-01-19T02:55:29.876Z,-2.10
2023-01-19T02:58:03.763Z,-2.00
2023-01-19T03:00:50.937Z,-1.90
2023-01-19T03:03:38.124Z,-1.90
2023-01-19T03:06:08.706Z,-1.90
2023-01-19T03:08:50.234Z,-2.00
2023-01-19T03:11:17.256Z,-2.10
2023-01-19T03:14:00.891Z,-2.10
2023-01-19T03:16:41.238Z,-2.10
2023-01-19T03:19:11.200Z,-2.00
2023-01-19T03:21:39.832Z,-2.00
2023-01-19T03:24:08.263Z,-2.20
2023-01-19T03:26:37.863Z,-2.20
2023-01-19T03:29:06.950Z,-2.50
2023-01-19T03:31:34.112Z,-2.40
2023-01-19T03:34:03.413Z,-2.40
2023-01-19T03:36:35.540Z,-2.30
2023-01-19T03:39:04.053Z,-2.40
2023-01-19T03:41:32.509Z,-2.20
2023-01-19T03:44:00.133Z,-2.30
2023-01-19T03:46:27.564Z,-2.20
2023-01-19T03:48:57.061Z,-2.10
2023-01-19T03:51:24.072Z,-1.90
2023-01-19T03:53:51.016Z,-1.90
2023-01-19T03:56:22.414Z,-2.10
2023-01-19T03:58:49.574Z,-2.10
2023-01-19T04:01:17.707Z,-2.20
2023-01-19T04:03:44.670Z,-2.40
2023-01-19T04:06:12.972Z,-2.30
2023-01-19T04:08:40.832Z,-2.40
2023-01-19T04:11:08.344Z,-2.40
2023-01-19T04:13:35.406Z,-2.20
2023-01-19T04:16:02.982Z,-2.30
2023-01-19T04:18:33.731Z,-2.40
2023-01-19T04:21:01.280Z,-2.30
2023-01-19T04:23:28.573Z,-2.30
2023-01-19T04:25:58.990Z,-2.30
2023-01-19T04:28:26.278Z,-2.10
2023-01-19T04:30:53.456Z,-2.00
2023-01-19T04:33:20.523Z,-2.10
2023-01-19T04:35:47.573Z,-2.00
2023-01-19T04:38:14.432Z,-1.90
2023-01-19T04:40:41.217Z,-1.90
2023-01-19T04:43:08.468Z,-1.80
2023-01-19T04:45:36.600Z,-1.70
2023-01-19T04:48:06.980Z,-1.50
2023-01-19T04:50:33.884Z,-1.50
2023-01-19T04:53:01.248Z,-1.50
2023-01-19T04:55:29.365Z,-1.50
2023-01-19T04:57:56.396Z,-1.30
2023-01-19T05:00:23.615Z,-1.20
2023-01-19T05:02:50.524Z,-1.20
2023-01-19T05:05:18.312Z,-1.30
2023-01-19T05:07:45.358Z,-1.30
2023-01-19T05:10:12.198Z,-1.20
2023-01-19T05:12:39.089Z,-1.30
2023-01-19T05:15:09.641Z,-1.30
2023-01-19T05:17:36.880Z,-1.20
2023-01-19T05:20:04.304Z,-1.20
2023-01-19T05:22:31.275Z,-1.20
2023-01-19T05:24:58.427Z,-1.20
2023-01-19T05:27:25.283Z,-1.20
2023-01-19T05:29:52.118Z,-1.10
2023-01-19T05:32:18.960Z,-1.10
2023-01-19T05:34:46.467Z,-1.10
2023-01-19T05:37:13.971Z,-1.10
2023-01-19T05:39:40.812Z,-1.00
2023-01-19T05:42:07.636Z,-1.00
2023-01-19T05:44:34.449Z,-1.00
2023-01-19T05:47:01.291Z,-1.10
2023-01-19T05:49:28.210Z,-1.20
2023-01-19T05:51:55.060Z,-1.10
2023-01-19T05:54:21.889Z,-1.10
2023-01-19T05:56:48.728Z,-1.00
2023-01-19T05:59:17.540Z,-1.10
2023-01-19T06:01:44.382Z,-1.00
2023-01-19T06:04:11.197Z,-1.10
2023-01-19T06:06:38.015Z,-1.00
2023-01-19T06:09:04.859Z,-0.90
2023-01-19T06:11:31.650Z,-0.90
2023-01-19T06:13:58.544Z,-0.90
2023-01-19T06:16:25.516Z,-0.90
2023-01-19T06:18:52.659Z,-0.80
2023-01-19T06:21:19.485Z,-0.80
2023-01-19T06:23:46.289Z,-0.90
2023-01-19T06:26:13.624Z,-1.00
2023-01-19T06:28:40.406Z,-0.80
2023-01-19T06:31:07.320Z,-0.80
2023-01-19T06:33:34.162Z,-0.90
2023-01-19T06:36:01.253Z,-1.00
2023-01-19T06:38:28.199Z,-1.20
2023-01-19T06:40:58.345Z,-1.40
2023-01-19T06:43:25.861Z,-1.40
2023-01-19T06:45:52.825Z,-1.70
2023-01-19T06:48:19.860Z,-1.80
2023-01-19T06:50:47.281Z,-2.00
2023-01-19T06:53:16.674Z,-2.10
2023-01-19T06:55:44.190Z,-2.20
2023-01-19T06:58:11.548Z,-2.20
2023-01-19T07:00:38.591Z,-1.90
2023-01-19T07:03:08.833Z,-2.00
2023-01-19T07:05:36.288Z,-2.00
2023-01-19T07:08:04.000Z,-1.90
2023-01-19T07:11:24.858Z,-1.90
2023-01-19T07:13:18.153Z,-2.10
2023-01-19T07:15:45.163Z,-2.20
2023-01-19T07:18:12.158Z,-2.10
2023-01-19T07:20:39.190Z,-2.30
2023-01-19T07:23:06.150Z,-2.40
2023-01-19T07:25:37.275Z,-2.50
2023-01-19T07:28:04.711Z,-2.50
2023-01-19T07:30:31.677Z,-2.50
2023-01-19T07:32:59.109Z,-2.40
2023-01-19T07:35:26.263Z,-2.30
2023-01-19T07:37:53.050Z,-2.40
2023-01-19T07:40:19.870Z,-2.40
2023-01-19T07:42:50.544Z,-2.40
2023-01-19T07:45:18.249Z,-2.30
2023-01-19T07:47:45.760Z,-2.10
2023-01-19T07:50:13.795Z,-1.80
2023-01-19T07:52:40.875Z,-1.90
2023-01-19T07:55:08.290Z,-1.80
2023-01-19T07:57:35.745Z,-1.70
2023-01-19T08:00:03.431Z,-1.60
2023-01-19T08:02:39.232Z,-1.50
2023-01-19T08:05:06.188Z,-1.20
2023-01-19T08:07:33.529Z,-1.10
2023-01-19T08:10:00.387Z,-1.00
2023-01-19T08:12:27.259Z,-0.90
2023-01-19T08:14:54.103Z,-1.00
2023-01-19T08:17:20.936Z,-0.90
2023-01-19T08:19:47.739Z,-0.80
2023-01-19T08:22:14.727Z,-1.00
2023-01-19T08:24:41.569Z,-0.90
2023-01-19T08:27:09.935Z,-0.80
2023-01-19T08:29:37.019Z,-0.60
2023-01-19T08:32:04.827Z,-0.50
2023-01-19T08:34:32.033Z,-0.30
2023-01-19T08:39:38.241Z,-0.10
2023-01-19T08:42:05.683Z,-0.30
2023-01-19T08:44:32.532Z,-0.30
2023-01-19T08:47:00.005Z,-0.10
2023-01-19T08:49:27.005Z,0.10
2023-01-19T08:51:53.796Z,0.30
2023-01-19T08:54:21.857Z,0.30
2023-01-19T08:56:48.648Z,0.40
2023-01-19T08:59:15.503Z,0.40
2023-01-19T09:01:42.494Z,0.40
2023-01-19T09:04:09.364Z,0.30
2023-01-19T09:06:36.256Z,1.00
2023-01-19T09:09:03.619Z,2.70
2023-01-19T09:11:30.909Z,3.70
2023-01-19T09:13:58.029Z,3.60
2023-01-19T09:16:27.067Z,5.10
2023-01-19T09:18:54.174Z,7.30
2023-01-19T09:21:21.132Z,8.90
2023-01-19T09:23:49.279Z,9.80
2023-01-19T09:26:16.691Z,10.00
2023-01-19T09:28:43.611Z,8.70
2023-01-19T09:31:10.693Z,6.60
2023-01-19T09:33:37.664Z,4.90
2023-01-19T09:36:04.644Z,4.20
2023-01-19T09:38:32.922Z,3.70
2023-01-19T09:41:00.293Z,3.20
2023-01-19T09:43:47.896Z,2.80
2023-01-19T09:46:34.648Z,2.30
2023-01-19T09:49:04.963Z,2.10
2023-01-19T09:51:39.486Z,1.70
2023-01-19T09:54:13.243Z,1.50
2023-01-19T09:56:40.562Z,1.20
2023-01-19T09:59:17.375Z,1.10
2023-01-19T10:01:44.342Z,1.20
2023-01-19T10:04:20.548Z,1.30
2023-01-19T10:06:48.627Z,1.10
2023-01-19T10:09:41.682Z,1.20
2023-01-19T10:12:08.507Z,1.10
2023-01-19T10:14:43.057Z,1.40
2023-01-19T10:17:28.644Z,1.40
2023-01-19T10:19:57.403Z,1.40
2023-01-19T10:22:25.726Z,1.40
2023-01-19T10:24:55.777Z,1.40
2023-01-19T10:27:24.589Z,1.40
2023-01-19T10:29:51.557Z,1.50
2023-01-19T10:32:25.767Z,1.50
2023-01-19T10:34:53.254Z,1.40
2023-01-19T10:37:23.248Z,1.40
2023-01-19T10:39:54.182Z,1.50
2023-01-19T10:42:21.111Z,1.50
2023-01-19T10:44:49.280Z,1.50
2023-01-19T10:47:17.922Z,1.30
2023-01-19T10:49:45.128Z,1.10
2023-01-19T10:52:30.672Z,1.10
2023-01-19T10:54:59.996Z,1.30
2023-01-19T10:57:38.366Z,1.40
2023-01-19T11:00:06.463Z,1.20
2023-01-19T11:02:33.477Z,1.10
2023-01-19T11:05:01.879Z,1.00
2023-01-19T11:07:28.685Z,1.00
2023-01-19T11:10:14.284Z,1.20
2023-01-19T11:12:53.343Z,1.40
2023-01-19T11:15:24.760Z,1.50
2023-01-19T11:17:52.799Z,1.60
2023-01-19T11:20:24.066Z,1.60
2023-01-19T11:23:04.696Z,1.60
2023-01-19T11:25:32.898Z,1.50
2023-01-19T11:28:00.355Z,1.60
2023-01-19T11:30:27.405Z,1.80
2023-01-19T11:32:56.298Z,1.90
2023-01-19T11:35:39.941Z,2.00
2023-01-19T11:38:07.840Z,2.10
2023-01-19T11:40:35.383Z,2.30
2023-01-19T11:43:02.572Z,2.40
2023-01-19T11:45:31.853Z,2.60
2023-01-19T11:48:02.311Z,2.80
2023-01-19T11:50:39.114Z,2.90
2023-01-19T11:53:10.992Z,3.10
2023-01-19T11:55:41.434Z,3.00
2023-01-19T11:58:13.900Z,2.80
2023-01-19T12:00:49.941Z,2.90
2023-01-19T12:03:23.021Z,2.70
2023-01-19T12:05:55.532Z,2.60
2023-01-19T12:08:30.099Z,2.70
2023-01-19T12:10:58.601Z,2.70
2023-01-19T12:13:26.500Z,2.70
2023-01-19T12:15:57.867Z,2.60
2023-01-19T12:18:28.242Z,2.50
2023-01-19T12:20:56.034Z,2.60
2023-01-19T12:23:41.398Z,2.70
2023-01-19T12:26:28.771Z,2.70
2023-01-19T12:28:59.077Z,2.90
2023-01-19T12:31:26.089Z,3.10
2023-01-19T12:33:53.230Z,3.20
2023-01-19T12:36:38.892Z,3.40
2023-01-19T12:39:08.803Z,3.30
2023-01-19T12:41:36.515Z,3.20
2023-01-19T12:44:12.511Z,3.20
2023-01-19T12:46:54.616Z,3.10
2023-01-19T12:49:30.719Z,3.10
2023-01-19T12:52:16.584Z,3.00
2023-01-19T12:54:55.749Z,2.90
2023-01-19T12:57:24.842Z,2.90
2023-01-19T12:59:58.879Z,3.00
2023-01-19T13:02:28.776Z,3.10
2023-01-19T13:05:12.884Z,3.40
2023-01-19T13:07:58.245Z,3.10
2023-01-19T13:10:43.577Z,3.00
2023-01-19T13:13:29.526Z,2.90
2023-01-19T13:15:58.005Z,2.90
2023-01-19T13:18:26.497Z,2.70
2023-01-19T13:20:55.190Z,2.70
2023-01-19T13:23:26.376Z,2.70
2023-01-19T13:26:01.914Z,2.60
2023-01-19T13:28:32.103Z,2.70
2023-01-19T13:31:00.118Z,2.80
2023-01-19T13:33:28.210Z,2.90
2023-01-19T13:35:56.339Z,2.80
2023-01-19T13:38:23.711Z,2.90
2023-01-19T13:40:51.124Z,3.10
2023-01-19T13:43:19.571Z,3.10
2023-01-19T13:45:50.711Z,3.10
2023-01-19T13:48:22.170Z,3.00
2023-01-19T13:51:02.417Z,3.00
2023-01-19T13:53:30.363Z,3.10
2023-01-19T13:56:06.453Z,3.10
2023-01-19T13:58:33.300Z,3.00
2023-01-19T14:01:00.352Z,2.90
2023-01-19T14:03:27.292Z,2.80
2023-01-19T14:05:54.732Z,2.90
2023-01-19T14:08:22.307Z,2.90
2023-01-19T14:10:52.220Z,2.80
2023-01-19T14:13:23.371Z,2.80
2023-01-19T14:15:51.857Z,2.90
2023-01-19T14:18:19.066Z,2.90
2023-01-19T14:21:15.271Z,2.70
2023-01-19T14:23:42.151Z,2.80
2023-01-19T14:26:28.067Z,2.80
2023-01-19T14:28:55.036Z,2.90
2023-01-19T14:31:23.345Z,3.00
2023-01-19T14:33:54.361Z,3.10
2023-01-19T14:36:21.209Z,3.20
2023-01-19T14:38:49.786Z,3.30
2023-01-19T14:41:34.891Z,3.10
2023-01-19T14:44:02.908Z,3.20
2023-01-19T14:46:29.798Z,3.40
2023-01-19T14:49:00.686Z,3.30
2023-01-19T14:51:27.958Z,3.00
2023-01-19T14:53:58.554Z,3.00
2023-01-19T14:56:30.337Z,3.00
2023-01-19T14:58:57.905Z,3.00
2023-01-19T15:01:28.544Z,3.00
2023-01-19T15:03:58.404Z,2.90
2023-01-19T15:06:26.109Z,2.80
2023-01-19T15:08:53.673Z,2.70
2023-01-19T15:11:33.855Z,2.60
2023-01-19T15:14:01.118Z,2.50
2023-01-19T15:16:29.091Z,2.40
2023-01-19T15:18:55.931Z,2.40
2023-01-19T15:21:29.215Z,2.30
2023-01-19T15:23:56.270Z,2.40
2023-01-19T15:26:24.077Z,2.40
2023-01-19T15:28:50.903Z,2.20
2023-01-19T15:31:19.645Z,2.10
2023-01-19T15:33:46.639Z,2.10
2023-01-19T15:36:16.381Z,2.10
2023-01-19T15:38:44.569Z,1.90
2023-01-19T15:41:15.375Z,1.90
2023-01-19T15:43:42.263Z,1.90
2023-01-19T15:46:11.284Z,1.90
2023-01-19T15:48:38.152Z,1.90
2023-01-19T15:51:05.658Z,1.90
2023-01-19T15:53:32.490Z,1.80
2023-01-19T15:55:59.428Z,1.80
2023-01-19T15:58:26.675Z,1.80
2023-01-19T16:00:57.748Z,1.70
2023-01-19T16:03:25.244Z,1.70
2023-01-19T16:05:52.088Z,1.70
2023-01-19T16:08:19.061Z,1.70
2023-01-19T16:10:45.832Z,1.60
2023-01-19T16:13:12.890Z,1.60
2023-01-19T16:15:42.234Z,1.70
2023-01-19T16:18:09.218Z,1.70
2023-01-19T16:20:36.082Z,1.60
2023-01-19T16:23:14.972Z,1.50
2023-01-19T16:25:42.323Z,1.60
2023-01-19T16:28:09.243Z,1.60
2023-01-19T16:30:36.177Z,1.50
2023-01-19T16:33:03.216Z,1.60
2023-01-19T16:35:30.025Z,1.60
2023-01-19T16:37:56.855Z,1.60
2023-01-19T16:40:23.666Z,1.60
2023-01-19T16:42:51.148Z,1.50
2023-01-19T16:45:17.951Z,1.50
2023-01-19T16:47:50.461Z,1.50
2023-01-19T16:50:17.315Z,1.60
2023-01-19T16:52:44.199Z,1.50
2023-01-19T16:55:11.341Z,1.50
2023-01-19T16:57:40.989Z,1.50
2023-01-19T17:00:09.923Z,1.60
2023-01-19T17:02:37.378Z,1.50
2023-01-19T17:05:04.477Z,1.40
2023-01-19T17:07:31.257Z,1.50
2023-01-19T17:09:58.071Z,1.50
2023-01-19T17:12:24.964Z,1.60
2023-01-19T17:14:51.854Z,1.60
2023-01-19T17:17:18.685Z,1.40
2023-01-19T17:19:45.582Z,1.50
2023-01-19T17:22:13.483Z,1.50
2023-01-19T17:24:42.525Z,1.50
2023-01-19T17:27:09.800Z,1.50
2023-01-19T17:29:36.697Z,1.70
2023-01-19T17:32:04.046Z,1.60
2023-01-19T17:34:31.044Z,1.60
2023-01-19T17:37:02.958Z,1.60
2023-01-19T17:39:30.189Z,1.50
2023-01-19T17:41:57.132Z,1.50
2023-01-19T17:44:23.939Z,1.50
2023-01-19T17:46:50.880Z,1.60
2023-01-19T17:49:17.777Z,1.60
2023-01-19T17:51:44.631Z,1.50
2023-01-19T17:54:11.418Z,1.40
2023-01-19T17:56:38.887Z,1.40
2023-01-19T17:59:07.725Z,1.40
2023-01-19T18:01:37.864Z,1.30
2023-01-19T18:04:04.945Z,1.20
2023-01-19T18:06:31.834Z,1.30
2023-01-19T18:09:01.671Z,1.40
2023-01-19T18:11:28.576Z,1.40
2023-01-19T18:13:55.455Z,1.30
2023-01-19T18:16:24.394Z,1.50
2023-01-19T18:18:53.562Z,1.40
2023-01-19T18:21:21.742Z,1.40
2023-01-19T18:23:49.232Z,1.30
2023-01-19T18:26:20.884Z,1.20
2023-01-19T18:28:48.214Z,1.30
2023-01-19T18:31:16.370Z,1.20
2023-01-19T18:33:43.301Z,1.30
2023-01-19T18:36:10.557Z,1.40
2023-01-19T18:38:38.284Z,1.30
2023-01-19T18:41:06.407Z,1.20
2023-01-19T18:43:33.626Z,1.20
2023-01-19T18:46:00.575Z,1.20
2023-01-19T18:48:27.435Z,1.20
2023-01-19T18:50:54.295Z,1.10
2023-01-19T18:53:21.567Z,1.10
2023-01-19T18:55:52.041Z,1.20
2023-01-19T18:58:19.322Z,1.10
2023-01-19T19:00:46.659Z,1.10
2023-01-19T19:03:14.345Z,1.20
2023-01-19T19:06:06.750Z,1.10
2023-01-19T19:08:33.724Z,1.00
2023-01-19T19:11:00.517Z,1.00
2023-01-19T19:13:27.459Z,1.10
2023-01-19T19:15:56.999Z,1.10
2023-01-19T19:18:23.868Z,1.20
2023-01-19T19:20:50.684Z,1.10
2023-01-19T19:23:17.477Z,1.00
2023-01-19T19:25:44.356Z,1.00
2023-01-19T19:28:11.122Z,1.00
2023-01-19T19:30:39.068Z,0.90
2023-01-19T19:33:06.048Z,0.80
2023-01-19T19:35:33.015Z,0.70
2023-01-19T19:37:59.873Z,0.80
2023-01-19T19:40:27.293Z,0.80
2023-01-19T19:42:54.134Z,0.80
2023-01-19T19:45:20.960Z,0.70
2023-01-19T19:47:47.876Z,0.90
2023-01-19T19:50:15.212Z,0.90
2023-01-19T19:52:42.623Z,0.90
2023-01-19T19:55:10.390Z,1.00
2023-01-19T19:57:37.268Z,1.10
2023-01-19T20:00:05.265Z,1.00
2023-01-19T20:02:36.647Z,0.90
2023-01-19T20:05:03.837Z,1.00
2023-01-19T20:07:30.865Z,0.90
2023-01-19T20:09:57.721Z,1.00
2023-01-19T20:12:24.652Z,1.00
2023-01-19T20:14:51.461Z,1.10
2023-01-19T20:17:19.070Z,1.00
2023-01-19T20:19:47.710Z,0.90
2023-01-19T20:22:14.825Z,0.90
2023-01-19T20:24:41.648Z,0.90
2023-01-19T20:27:08.529Z,0.90
2023-01-19T20:29:35.398Z,1.00
2023-01-19T20:32:02.366Z,0.90
2023-01-19T20:34:32.966Z,0.90
2023-01-19T20:37:01.371Z,0.90
2023-01-19T20:39:30.129Z,0.90
2023-01-19T20:41:57.052Z,0.90
2023-01-19T20:44:24.847Z,0.90
2023-01-19T20:46:52.357Z,1.00
2023-01-19T20:49:19.538Z,0.90
2023-01-19T20:51:47.024Z,0.90
2023-01-19T20:54:15.077Z,1.10
2023-01-19T20:56:41.920Z,1.10
2023-01-19T20:59:12.385Z,1.00
2023-01-19T21:01:40.234Z,1.00
2023-01-19T21:04:07.677Z,1.00
2023-01-19T21:06:34.535Z,1.00
2023-01-19T21:09:01.670Z,1.00
2023-01-19T21:11:28.605Z,1.00
2023-01-19T21:13:56.520Z,0.90
2023-01-19T21:16:24.048Z,1.10
2023-01-19T21:18:50.967Z,1.10
2023-01-19T21:21:29.827Z,1.00
2023-01-19T21:23:58.621Z,1.00
2023-01-19T21:26:25.515Z,0.90
2023-01-19T21:28:52.388Z,0.80
2023-01-19T21:31:20.920Z,0.70
2023-01-19T21:33:49.212Z,0.70
2023-01-19T21:36:16.074Z,0.80
2023-01-19T21:38:42.991Z,0.70
2023-01-19T21:41:12.513Z,0.70
2023-01-19T21:43:41.094Z,0.70
2023-01-19T21:46:16.891Z,0.70
2023-01-19T21:48:43.856Z,0.70
2023-01-19T21:51:10.673Z,0.70
2023-01-19T21:53:37.891Z,0.70
2023-01-19T21:56:08.317Z,0.90
2023-01-19T21:58:35.315Z,0.80
2023-01-19T22:01:03.688Z,0.70
2023-01-19T22:03:30.653Z,0.80
2023-01-19T22:06:02.612Z,0.80
2023-01-19T22:08:29.422Z,0.80
2023-01-19T22:10:56.273Z,0.90
2023-01-19T22:13:23.117Z,0.90
2023-01-19T22:15:49.889Z,0.90
2023-01-19T22:18:16.721Z,0.90
2023-01-19T22:20:43.503Z,0.80
2023-01-19T22:23:10.326Z,0.80
2023-01-19T22:25:37.136Z,0.80
2023-01-19T22:28:04.076Z,0.80
2023-01-19T22:30:31.090Z,0.70
2023-01-19T22:32:58.057Z,0.70
2023-01-19T22:35:24.888Z,0.70
2023-01-19T22:37:51.655Z,0.80
2023-01-19T22:40:18.588Z,0.70
2023-01-19T22:42:48.828Z,0.80
2023-01-19T22:45:15.980Z,0.70
2023-01-19T22:47:42.880Z,0.70
2023-01-19T22:50:10.102Z,0.70
2023-01-19T22:52:36.965Z,0.70
2023-01-19T22:55:03.938Z,0.60
2023-01-19T22:57:34.405Z,0.70
2023-01-19T23:00:01.884Z,0.60
2023-01-19T23:02:28.648Z,0.60
2023-01-19T23:04:55.544Z,0.70
2023-01-19T23:07:22.362Z,0.70
2023-01-19T23:09:49.343Z,0.70
2023-01-19T23:12:16.169Z,0.80
2023-01-19T23:14:42.964Z,0.70
2023-01-19T23:17:09.786Z,0.60
2023-01-19T23:19:36.579Z,0.60
2023-01-19T23:22:03.407Z,0.60
2023-01-19T23:24:30.505Z,0.50
2023-01-19T23:26:57.314Z,0.70
2023-01-19T23:29:24.132Z,0.80
2023-01-19T23:31:53.358Z,0.70
2023-01-19T23:34:20.304Z,0.70
2023-01-19T23:36:47.238Z,0.60
2023-01-19T23:39:15.635Z,0.50
2023-01-19T23:41:42.612Z,0.40
2023-01-19T23:44:09.428Z,0.40
2023-01-19T23:46:36.261Z,0.50
2023-01-19T23:49:03.080Z,0.50
2023-01-19T23:51:30.980Z,0.50
2023-01-19T23:53:58.327Z,0.60
2023-01-19T23:56:26.420Z,0.60
2023-01-19T23:58:55.454Z,0.60
